METAR
Output Produced by Metar
found at http://aviationweather.gov/adds/metars/
 

Data at: 1823 UTC 21 Aug 2019

METAR for:WIII (Jakarta Intl, --, ID)
Text:WIII 211800Z 14004KT 7000 FEW020 27/21 Q1012 NOSIG
Temperature: 27.0°C ( 81°F)
Dewpoint: 21.0°C ( 70°F) [RH = 70%]
Pressure (altimeter):29.88 inches Hg (1012.0 mb)
Winds:from the SE (140 degrees) at 5 MPH (4 knots; 2.1 m/s)
Visibility: 4 sm ( 7 km)
Ceiling:at least 12,000 feet AGL
Clouds: few clouds at 2000 feet AGL